createdAt,value
2022-07-31T00:01:04.329Z,2.65
2022-07-31T00:03:32.803Z,2.90
2022-07-31T00:06:01.390Z,2.65
2022-07-31T00:08:29.880Z,2.70
2022-07-31T00:10:58.357Z,2.80
2022-07-31T00:13:57.216Z,2.67
2022-07-31T00:16:17.411Z,2.42
2022-07-31T00:18:45.845Z,2.50
2022-07-31T00:21:15.136Z,2.47
2022-07-31T00:23:43.617Z,2.60
2022-07-31T00:26:12.088Z,2.70
2022-07-31T00:28:40.668Z,2.47
2022-07-31T00:31:09.164Z,2.78
2022-07-31T00:33:39.101Z,2.55
2022-07-31T00:36:08.171Z,2.90
2022-07-31T00:38:36.799Z,2.70
2022-07-31T00:41:05.225Z,2.90
2022-07-31T00:43:33.656Z,3.13
2022-07-31T00:46:02.138Z,2.70
2022-07-31T00:48:31.212Z,2.58
2022-07-31T00:51:01.544Z,2.95
2022-07-31T00:53:29.977Z,3.08
2022-07-31T00:55:58.545Z,2.65
2022-07-31T00:58:27.014Z,2.65
2022-07-31T01:00:55.514Z,2.72
2022-07-31T01:03:23.991Z,2.55
2022-07-31T01:05:52.413Z,2.47
2022-07-31T01:08:22.285Z,2.78
2022-07-31T01:10:55.624Z,2.47
2022-07-31T01:13:32.225Z,2.67
2022-07-31T01:16:01.363Z,2.63
2022-07-31T01:18:31.785Z,2.55
2022-07-31T01:21:03.339Z,2.40
2022-07-31T01:23:55.240Z,2.60
2022-07-31T01:26:35.986Z,2.03
2022-07-31T01:29:20.322Z,2.13
2022-07-31T01:31:53.639Z,2.50
2022-07-31T01:34:27.112Z,2.42
2022-07-31T01:37:05.103Z,2.50
2022-07-31T01:39:34.982Z,2.15
2022-07-31T01:42:06.379Z,2.25
2022-07-31T01:44:42.601Z,2.05
2022-07-31T01:47:11.740Z,2.15
2022-07-31T01:49:40.236Z,2.10
2022-07-31T01:52:09.122Z,2.08
2022-07-31T01:54:37.569Z,2.10
2022-07-31T01:57:06.235Z,1.73
2022-07-31T01:59:35.290Z,1.77
2022-07-31T02:02:06.386Z,1.80
2022-07-31T02:04:38.321Z,1.90
2022-07-31T02:07:08.361Z,1.88
2022-07-31T02:09:37.057Z,1.88
2022-07-31T02:12:09.678Z,1.75
2022-07-31T02:14:38.491Z,1.60
2022-07-31T02:17:08.548Z,1.58
2022-07-31T02:19:37.446Z,1.50
2022-07-31T02:22:06.868Z,1.65
2022-07-31T02:24:35.501Z,1.50
2022-07-31T02:27:03.951Z,1.40
2022-07-31T02:29:34.511Z,1.38
2022-07-31T02:32:03.720Z,1.27
2022-07-31T02:34:33.970Z,1.25
2022-07-31T02:37:02.773Z,1.20
2022-07-31T02:39:31.955Z,0.98
2022-07-31T02:42:02.083Z,1.20
2022-07-31T02:44:32.298Z,1.00
2022-07-31T02:47:02.677Z,1.10
2022-07-31T02:49:31.483Z,1.10
2022-07-31T02:52:01.834Z,1.10
2022-07-31T02:54:30.673Z,1.27
2022-07-31T02:56:59.588Z,1.00
2022-07-31T02:59:28.097Z,1.08
2022-07-31T03:01:56.541Z,0.98
2022-07-31T03:04:25.525Z,0.90
2022-07-31T03:06:54.030Z,0.93
2022-07-31T03:09:23.969Z,0.90
2022-07-31T03:11:52.632Z,0.88
2022-07-31T03:14:21.143Z,0.85
2022-07-31T03:16:49.710Z,0.93
2022-07-31T03:19:18.427Z,0.93
2022-07-31T03:21:47.096Z,0.88
2022-07-31T03:24:15.562Z,0.82
2022-07-31T03:26:45.534Z,0.70
2022-07-31T03:29:39.109Z,0.88
2022-07-31T03:32:02.855Z,0.90
2022-07-31T03:34:31.750Z,0.80
2022-07-31T03:37:00.515Z,1.00
2022-07-31T03:39:29.006Z,0.80
2022-07-31T03:41:59.009Z,0.90
2022-07-31T03:44:27.539Z,0.80
2022-07-31T03:46:56.163Z,0.80
2022-07-31T03:49:24.860Z,0.80
2022-07-31T03:51:53.865Z,0.65
2022-07-31T03:54:22.313Z,0.70
2022-07-31T03:56:51.819Z,0.70
2022-07-31T03:59:22.171Z,0.65
2022-07-31T04:02:07.525Z,0.60
2022-07-31T04:04:39.171Z,0.73
2022-07-31T04:07:07.749Z,0.80
2022-07-31T04:09:36.466Z,0.90
2022-07-31T04:12:06.257Z,0.70
2022-07-31T04:14:36.297Z,0.80
2022-07-31T04:17:05.176Z,0.73
2022-07-31T04:19:34.166Z,0.70
2022-07-31T04:22:04.652Z,0.70
2022-07-31T04:24:33.461Z,0.90
2022-07-31T04:27:02.048Z,0.80
2022-07-31T04:29:30.584Z,0.65
2022-07-31T04:32:00.642Z,0.70
2022-07-31T04:34:29.246Z,0.70
2022-07-31T04:36:58.885Z,0.70
2022-07-31T04:39:27.350Z,0.63
2022-07-31T04:41:56.134Z,0.70
2022-07-31T04:44:24.632Z,0.70
2022-07-31T04:46:53.117Z,0.77
2022-07-31T04:49:23.117Z,0.80
2022-07-31T04:51:51.858Z,0.65
2022-07-31T04:54:20.287Z,0.50
2022-07-31T04:56:48.879Z,0.70
2022-07-31T04:59:20.288Z,0.80
2022-07-31T05:01:49.179Z,0.70
2022-07-31T05:04:17.900Z,0.70
2022-07-31T05:06:48.893Z,0.70
2022-07-31T05:09:19.598Z,0.85
2022-07-31T05:11:52.689Z,1.10
2022-07-31T05:14:29.260Z,0.70
2022-07-31T05:16:57.866Z,0.70
2022-07-31T05:19:29.822Z,0.70
2022-07-31T05:22:02.547Z,0.63
2022-07-31T05:24:33.502Z,0.82
2022-07-31T05:27:03.162Z,0.90
2022-07-31T05:29:31.999Z,0.90
2022-07-31T05:32:01.237Z,1.00
2022-07-31T05:34:30.779Z,0.85
2022-07-31T05:37:02.299Z,1.20
2022-07-31T05:39:31.048Z,1.02
2022-07-31T05:41:59.697Z,1.20
2022-07-31T05:44:28.215Z,1.30
2022-07-31T05:49:26.871Z,1.10
2022-07-31T05:51:55.551Z,1.10
2022-07-31T05:54:25.510Z,1.23
2022-07-31T05:56:54.104Z,1.30
2022-07-31T05:59:22.795Z,1.30
2022-07-31T06:01:51.483Z,1.08
2022-07-31T06:04:19.980Z,1.10
2022-07-31T06:06:48.454Z,1.05
2022-07-31T06:09:16.929Z,1.20
2022-07-31T06:11:47.291Z,1.20
2022-07-31T06:14:15.735Z,1.17
2022-07-31T06:16:45.647Z,1.00
2022-07-31T06:19:14.304Z,1.40
2022-07-31T06:21:42.869Z,1.45
2022-07-31T06:24:11.446Z,1.50
2022-07-31T06:26:41.713Z,1.50
2022-07-31T06:29:12.881Z,1.40
2022-07-31T06:31:41.358Z,1.10
2022-07-31T06:34:12.434Z,1.27
2022-07-31T06:36:40.886Z,1.35
2022-07-31T06:39:09.471Z,1.40
2022-07-31T06:41:48.261Z,1.10
2022-07-31T06:44:19.352Z,1.23
2022-07-31T06:46:49.052Z,1.30
2022-07-31T06:49:18.327Z,1.52
2022-07-31T06:51:46.917Z,1.55
2022-07-31T06:54:15.395Z,1.80
2022-07-31T06:56:43.887Z,1.77
2022-07-31T06:59:12.997Z,1.38
2022-07-31T07:01:43.214Z,1.80
2022-07-31T07:04:11.713Z,1.67
2022-07-31T07:06:40.359Z,1.48
2022-07-31T07:09:08.845Z,2.20
2022-07-31T07:11:37.350Z,10.27
2022-07-31T07:14:05.771Z,4.72
2022-07-31T07:16:34.414Z,2.60
2022-07-31T07:19:04.235Z,2.33
2022-07-31T07:21:33.340Z,2.45
2022-07-31T07:24:01.927Z,2.60
2022-07-31T07:26:30.439Z,2.53
2022-07-31T07:28:59.605Z,2.40
2022-07-31T07:31:28.592Z,2.40
2022-07-31T07:33:57.097Z,2.67
2022-07-31T07:36:27.018Z,2.30
2022-07-31T07:38:56.475Z,2.50
2022-07-31T07:41:25.265Z,2.60
2022-07-31T07:43:54.087Z,2.70
2022-07-31T07:46:23.383Z,2.40
2022-07-31T07:48:52.193Z,2.60
2022-07-31T07:51:20.931Z,2.35
2022-07-31T07:53:50.839Z,2.13
2022-07-31T07:56:19.364Z,2.00
2022-07-31T07:58:49.233Z,2.20
2022-07-31T08:01:18.283Z,2.00
2022-07-31T08:03:51.746Z,1.65
2022-07-31T08:06:21.920Z,2.05
2022-07-31T08:08:51.781Z,1.90
2022-07-31T08:11:20.973Z,1.92
2022-07-31T08:13:50.901Z,1.88
2022-07-31T08:16:20.952Z,1.95
2022-07-31T08:18:49.564Z,1.80
2022-07-31T08:21:18.131Z,1.92
2022-07-31T08:23:47.455Z,1.95
2022-07-31T08:26:18.760Z,1.90
2022-07-31T08:28:49.806Z,3.83
2022-07-31T08:31:20.240Z,3.47
2022-07-31T08:33:50.157Z,3.53
2022-07-31T08:36:18.854Z,3.60
2022-07-31T08:38:47.356Z,2.95
2022-07-31T08:41:17.348Z,2.90
2022-07-31T08:44:02.370Z,2.53
2022-07-31T08:46:34.069Z,2.38
2022-07-31T08:49:03.796Z,2.60
2022-07-31T08:51:34.230Z,2.50
2022-07-31T08:54:20.218Z,2.38
2022-07-31T08:56:52.567Z,2.38
2022-07-31T08:59:22.158Z,2.53
2022-07-31T09:01:51.427Z,2.17
2022-07-31T09:04:20.018Z,2.00
2022-07-31T09:06:48.543Z,2.20
2022-07-31T09:09:17.949Z,2.38
2022-07-31T09:11:53.936Z,2.30
2022-07-31T09:14:30.605Z,2.40
2022-07-31T09:16:59.279Z,2.20
2022-07-31T09:19:52.081Z,2.15
2022-07-31T09:22:24.520Z,2.10
2022-07-31T09:24:53.255Z,2.15
2022-07-31T09:27:29.271Z,2.10
2022-07-31T09:29:59.052Z,1.90
2022-07-31T09:32:27.534Z,2.10
2022-07-31T09:34:56.110Z,2.03
2022-07-31T09:37:27.438Z,2.10
2022-07-31T09:39:57.245Z,2.25
2022-07-31T09:42:38.388Z,2.17
2022-07-31T09:45:21.828Z,2.10
2022-07-31T09:48:04.145Z,2.10
2022-07-31T09:50:32.878Z,2.30
2022-07-31T09:53:01.816Z,2.00
2022-07-31T09:55:30.434Z,1.92
2022-07-31T09:58:01.154Z,2.00
2022-07-31T10:00:29.911Z,2.20
2022-07-31T10:02:58.604Z,1.90
2022-07-31T10:05:28.527Z,2.13
2022-07-31T10:08:00.358Z,2.17
2022-07-31T10:10:30.219Z,2.10
2022-07-31T10:13:02.836Z,2.03
2022-07-31T10:15:31.267Z,1.80
2022-07-31T10:17:59.780Z,1.67
2022-07-31T10:20:28.497Z,2.20
2022-07-31T10:23:00.267Z,2.00
2022-07-31T10:25:29.935Z,2.10
2022-07-31T10:27:59.775Z,2.00
2022-07-31T10:30:28.947Z,2.03
2022-07-31T10:32:58.785Z,2.13
2022-07-31T10:35:27.447Z,2.10
2022-07-31T10:38:02.343Z,2.40
2022-07-31T10:40:36.542Z,2.53
2022-07-31T10:43:20.505Z,2.80
2022-07-31T10:45:50.485Z,2.40
2022-07-31T10:48:19.337Z,2.50
2022-07-31T10:50:48.100Z,2.30
2022-07-31T10:53:18.016Z,2.65
2022-07-31T10:55:46.925Z,2.65
2022-07-31T10:58:19.695Z,3.40
2022-07-31T11:00:48.415Z,2.45
2022-07-31T11:03:17.188Z,2.83
2022-07-31T11:06:04.195Z,3.10
2022-07-31T11:08:43.234Z,2.97
2022-07-31T11:11:12.511Z,3.30
2022-07-31T11:13:49.815Z,3.85
2022-07-31T11:16:18.438Z,3.03
2022-07-31T11:18:57.988Z,3.00
2022-07-31T11:21:38.661Z,3.03
2022-07-31T11:24:15.102Z,3.05
2022-07-31T11:26:50.532Z,2.85
2022-07-31T11:29:59.451Z,3.20
2022-07-31T11:32:25.309Z,4.45
2022-07-31T11:34:56.165Z,4.50
2022-07-31T11:37:25.812Z,3.10
2022-07-31T11:39:55.110Z,3.70
2022-07-31T11:42:27.787Z,3.67
2022-07-31T11:45:08.433Z,3.20
2022-07-31T11:48:12.395Z,3.67
2022-07-31T11:50:31.090Z,3.60
2022-07-31T11:53:07.075Z,3.00
2022-07-31T11:55:46.347Z,3.20
2022-07-31T11:58:16.718Z,3.50
2022-07-31T12:00:54.163Z,3.10
2022-07-31T12:03:24.287Z,3.20
2022-07-31T12:05:53.578Z,2.95
2022-07-31T12:08:22.523Z,3.33
2022-07-31T12:10:52.543Z,3.10
2022-07-31T12:13:21.840Z,3.10
2022-07-31T12:16:00.013Z,3.40
2022-07-31T12:18:29.587Z,3.17
2022-07-31T12:21:00.660Z,3.08
2022-07-31T12:23:41.306Z,3.60
2022-07-31T12:26:12.944Z,3.35
2022-07-31T12:28:41.684Z,3.50
2022-07-31T12:31:11.521Z,3.00
2022-07-31T12:33:43.670Z,3.30
2022-07-31T12:36:16.402Z,3.33
2022-07-31T12:38:48.407Z,3.10
2022-07-31T12:41:18.039Z,3.22
2022-07-31T12:43:51.427Z,3.10
2022-07-31T12:46:24.154Z,3.00
2022-07-31T12:48:52.649Z,2.80
2022-07-31T12:51:44.046Z,3.33
2022-07-31T12:54:10.197Z,2.90
2022-07-31T12:56:39.216Z,3.00
2022-07-31T12:59:08.328Z,3.10
2022-07-31T13:01:38.417Z,3.22
2022-07-31T13:04:18.674Z,3.45
2022-07-31T13:06:51.527Z,3.03
2022-07-31T13:09:20.567Z,3.20
2022-07-31T13:11:51.229Z,3.30
2022-07-31T13:14:23.652Z,3.50
2022-07-31T13:16:55.075Z,3.42
2022-07-31T13:19:23.632Z,3.13
2022-07-31T13:21:52.162Z,3.00
2022-07-31T13:24:25.341Z,3.72
2022-07-31T13:26:53.834Z,3.47
2022-07-31T13:29:22.340Z,3.42
2022-07-31T13:31:52.275Z,3.10
2022-07-31T13:34:20.836Z,3.58
2022-07-31T13:36:49.383Z,2.95
2022-07-31T13:39:18.045Z,3.20
2022-07-31T13:41:46.585Z,3.30
2022-07-31T13:44:15.239Z,3.53
2022-07-31T13:46:43.730Z,3.25
2022-07-31T13:49:14.102Z,3.50
2022-07-31T13:51:42.664Z,3.08
2022-07-31T13:54:11.629Z,3.50
2022-07-31T13:56:43.667Z,3.15
2022-07-31T13:59:13.759Z,3.40
2022-07-31T14:02:05.211Z,3.38
2022-07-31T14:04:38.636Z,3.88
2022-07-31T14:07:09.167Z,3.30
2022-07-31T14:09:37.994Z,3.38
2022-07-31T14:12:07.783Z,3.33
2022-07-31T14:14:38.264Z,3.40
2022-07-31T14:17:06.799Z,3.20
2022-07-31T14:19:40.625Z,3.47
2022-07-31T14:22:14.408Z,3.20
2022-07-31T14:24:49.384Z,3.22
2022-07-31T14:27:19.928Z,3.13
2022-07-31T14:29:48.743Z,3.22
2022-07-31T14:32:17.313Z,3.35
2022-07-31T14:34:47.258Z,3.22
2022-07-31T14:37:15.821Z,3.65
2022-07-31T14:39:44.298Z,3.13
2022-07-31T14:42:12.950Z,3.30
2022-07-31T14:44:42.817Z,3.35
2022-07-31T14:47:11.413Z,3.50
2022-07-31T14:50:07.222Z,3.38
2022-07-31T14:52:30.002Z,3.42
2022-07-31T14:54:59.603Z,3.38
2022-07-31T14:57:28.242Z,3.58
2022-07-31T14:59:59.008Z,3.40
2022-07-31T15:02:28.067Z,3.35
2022-07-31T15:04:56.563Z,3.42
2022-07-31T15:07:46.271Z,3.40
2022-07-31T15:10:15.223Z,3.30
2022-07-31T15:12:43.821Z,3.40
2022-07-31T15:15:12.833Z,3.40
2022-07-31T15:17:41.358Z,3.33
2022-07-31T15:20:11.237Z,3.63
2022-07-31T15:22:39.767Z,3.45
2022-07-31T15:25:10.249Z,4.57
2022-07-31T15:27:40.218Z,4.70
2022-07-31T15:30:10.340Z,4.57
2022-07-31T15:32:39.957Z,4.03
2022-07-31T15:35:10.201Z,4.47
2022-07-31T15:37:39.299Z,4.70
2022-07-31T15:40:10.355Z,4.38
2022-07-31T15:42:41.762Z,4.60
2022-07-31T15:45:12.300Z,4.47
2022-07-31T15:47:40.831Z,4.35
2022-07-31T15:50:11.094Z,4.60
2022-07-31T15:52:39.537Z,4.68
2022-07-31T15:55:09.831Z,4.18
2022-07-31T15:57:39.789Z,4.30
2022-07-31T16:00:10.808Z,4.00
2022-07-31T16:02:39.554Z,3.72
2022-07-31T16:05:15.206Z,3.35
2022-07-31T16:08:28.799Z,3.20
2022-07-31T16:10:39.568Z,3.50
2022-07-31T16:13:09.705Z,3.25
2022-07-31T16:15:38.696Z,3.13
2022-07-31T16:18:07.310Z,3.17
2022-07-31T16:20:38.272Z,3.38
2022-07-31T16:23:06.693Z,3.35
2022-07-31T16:25:35.667Z,3.47
2022-07-31T16:28:04.204Z,3.40
2022-07-31T16:30:34.365Z,3.55
2022-07-31T16:33:03.261Z,4.05
2022-07-31T16:35:31.695Z,3.85
2022-07-31T16:38:00.120Z,3.72
2022-07-31T16:40:31.884Z,3.88
2022-07-31T16:43:47.734Z,4.20
2022-07-31T16:45:54.286Z,4.35
2022-07-31T16:48:22.759Z,4.40
2022-07-31T16:50:54.067Z,4.25
2022-07-31T16:54:11.526Z,4.45
2022-07-31T16:56:12.489Z,4.45
2022-07-31T16:58:41.040Z,3.97
2022-07-31T17:01:58.573Z,3.83
2022-07-31T17:04:03.693Z,3.33
2022-07-31T17:06:35.171Z,3.80
2022-07-31T17:09:16.129Z,4.15
2022-07-31T17:11:47.395Z,3.53
2022-07-31T17:14:16.210Z,3.30
2022-07-31T17:16:48.024Z,3.97
2022-07-31T17:19:36.049Z,3.30
2022-07-31T17:22:07.417Z,3.55
2022-07-31T17:24:37.810Z,3.53
2022-07-31T17:27:07.897Z,3.55
2022-07-31T17:29:36.995Z,3.67
2022-07-31T17:32:07.220Z,3.83
2022-07-31T17:34:36.363Z,3.42
2022-07-31T17:37:05.489Z,3.88
2022-07-31T17:39:34.510Z,3.80
2022-07-31T17:42:02.968Z,4.00
2022-07-31T17:44:31.428Z,3.80
2022-07-31T17:47:03.730Z,4.25
2022-07-31T17:49:35.351Z,7.90
2022-07-31T17:52:03.867Z,6.65
2022-07-31T17:54:32.759Z,4.70
2022-07-31T17:57:01.547Z,4.72
2022-07-31T17:59:30.064Z,4.75
2022-07-31T18:02:00.770Z,4.65
2022-07-31T18:04:29.657Z,4.32
2022-07-31T18:06:59.861Z,4.15
2022-07-31T18:09:28.792Z,4.25
2022-07-31T18:11:57.471Z,4.10
2022-07-31T18:14:25.998Z,4.47
2022-07-31T18:16:54.497Z,4.28
2022-07-31T18:19:23.113Z,4.28
2022-07-31T18:21:51.929Z,3.90
2022-07-31T18:24:21.831Z,4.07
2022-07-31T18:26:50.527Z,4.13
2022-07-31T18:29:18.986Z,4.20
2022-07-31T18:31:47.808Z,4.32
2022-07-31T18:34:16.336Z,4.10
2022-07-31T18:36:44.951Z,3.78
2022-07-31T18:39:13.399Z,3.90
2022-07-31T18:41:48.295Z,3.80
2022-07-31T18:44:17.601Z,3.45
2022-07-31T18:46:46.063Z,4.10
2022-07-31T18:51:02.048Z,3.75
2022-07-31T18:52:03.294Z,3.60
2022-07-31T18:54:32.185Z,3.30
2022-07-31T18:57:03.546Z,3.60
2022-07-31T18:59:32.136Z,3.55
2022-07-31T19:02:00.760Z,3.33
2022-07-31T19:04:29.666Z,3.55
2022-07-31T19:06:58.155Z,3.17
2022-07-31T19:09:26.655Z,3.38
2022-07-31T19:11:58.474Z,3.20
2022-07-31T19:14:28.734Z,2.90
2022-07-31T19:16:59.908Z,3.25
2022-07-31T19:19:31.748Z,2.63
2022-07-31T19:22:17.081Z,2.80
2022-07-31T19:24:45.517Z,3.00
2022-07-31T19:27:13.978Z,3.13
2022-07-31T19:32:12.752Z,4.05
2022-07-31T19:34:42.098Z,5.20
2022-07-31T19:37:16.614Z,5.22
2022-07-31T19:39:45.131Z,5.60
2022-07-31T19:42:13.639Z,5.28
2022-07-31T19:44:43.683Z,3.85
2022-07-31T19:47:12.127Z,3.88
2022-07-31T19:49:43.126Z,4.13
2022-07-31T19:52:11.661Z,3.90
2022-07-31T19:54:40.394Z,3.47
2022-07-31T19:57:09.134Z,3.30
2022-07-31T19:59:37.646Z,4.00
2022-07-31T20:02:08.611Z,3.70
2022-07-31T20:04:37.866Z,3.55
2022-07-31T20:07:07.285Z,3.72
2022-07-31T20:09:38.205Z,3.50
2022-07-31T20:12:08.141Z,3.33
2022-07-31T20:14:36.950Z,3.70
2022-07-31T20:17:05.431Z,3.55
2022-07-31T20:19:35.495Z,3.83
2022-07-31T20:22:24.756Z,3.28
2022-07-31T20:24:53.345Z,3.60
2022-07-31T20:27:21.887Z,3.70
2022-07-31T20:29:50.401Z,3.05
2022-07-31T20:32:18.937Z,3.10
2022-07-31T20:34:51.637Z,3.15
2022-07-31T20:37:20.144Z,3.47
2022-07-31T20:39:48.572Z,3.30
2022-07-31T20:42:17.022Z,3.40
2022-07-31T20:44:45.456Z,3.13
2022-07-31T20:47:14.625Z,3.60
2022-07-31T20:49:43.159Z,3.42
2022-07-31T20:52:13.044Z,3.00
2022-07-31T20:54:41.542Z,3.33
2022-07-31T20:57:10.073Z,3.28
2022-07-31T20:59:38.545Z,3.25
2022-07-31T21:02:07.328Z,3.30
2022-07-31T21:04:35.914Z,3.17
2022-07-31T21:07:04.387Z,3.65
2022-07-31T21:09:34.265Z,3.10
2022-07-31T21:12:03.271Z,3.50
2022-07-31T21:14:32.088Z,3.13
2022-07-31T21:17:00.802Z,3.13
2022-07-31T21:19:29.396Z,3.30
2022-07-31T21:21:57.823Z,2.90
2022-07-31T21:24:26.975Z,2.70
2022-07-31T21:26:57.924Z,3.30
2022-07-31T21:29:27.163Z,3.00
2022-07-31T21:31:57.550Z,3.22
2022-07-31T21:34:26.694Z,3.08
2022-07-31T21:36:55.504Z,3.13
2022-07-31T21:39:26.003Z,3.00
2022-07-31T21:41:56.785Z,2.97
2022-07-31T21:44:25.893Z,3.20
2022-07-31T21:46:55.746Z,3.22
2022-07-31T21:49:25.889Z,3.10
2022-07-31T21:51:55.203Z,3.17
2022-07-31T21:54:23.672Z,3.00
2022-07-31T21:56:52.112Z,2.90
2022-07-31T21:59:21.949Z,3.00
2022-07-31T22:01:58.131Z,3.30
2022-07-31T22:04:29.866Z,2.88
2022-07-31T22:07:20.711Z,3.05
2022-07-31T22:09:49.157Z,3.10
2022-07-31T22:12:17.575Z,3.13
2022-07-31T22:14:47.915Z,2.90
2022-07-31T22:17:16.398Z,3.40
2022-07-31T22:19:47.113Z,3.10
2022-07-31T22:22:17.168Z,3.28
2022-07-31T22:24:46.288Z,2.80
2022-07-31T22:27:33.145Z,2.97
2022-07-31T22:30:03.193Z,3.03
2022-07-31T22:32:32.120Z,3.33
2022-07-31T22:35:00.707Z,3.10
2022-07-31T22:37:32.789Z,2.90
2022-07-31T22:40:01.889Z,3.05
2022-07-31T22:42:30.561Z,2.85
2022-07-31T22:44:59.320Z,3.00
2022-07-31T22:47:30.252Z,3.30
2022-07-31T22:49:59.257Z,2.85
2022-07-31T22:52:34.639Z,2.80
2022-07-31T22:55:06.269Z,3.22
2022-07-31T22:57:34.714Z,3.30
2022-07-31T23:00:03.477Z,2.90
2022-07-31T23:02:33.289Z,3.13
2022-07-31T23:05:02.024Z,3.00
2022-07-31T23:07:30.551Z,2.90
2022-07-31T23:09:59.002Z,3.00
2022-07-31T23:12:28.233Z,3.00
2022-07-31T23:14:58.282Z,2.70
2022-07-31T23:17:26.774Z,3.10
2022-07-31T23:19:56.651Z,4.28
2022-07-31T23:22:33.493Z,3.38
2022-07-31T23:25:03.092Z,3.03
2022-07-31T23:27:31.662Z,4.82
2022-07-31T23:30:00.282Z,8.55
2022-07-31T23:32:28.898Z,10.88
2022-07-31T23:34:58.716Z,10.25
2022-07-31T23:37:27.167Z,11.27
2022-07-31T23:39:55.583Z,9.70
2022-07-31T23:42:38.105Z,9.02
2022-07-31T23:45:08.579Z,7.20
2022-07-31T23:47:45.570Z,8.00
2022-07-31T23:50:16.240Z,7.88
2022-07-31T23:52:44.665Z,7.45
2022-07-31T23:55:13.218Z,6.57
2022-07-31T23:57:41.802Z,6.35
